createdAt,value
2022-09-17T00:01:37.695Z,56.63
2022-09-17T00:04:06.515Z,57.27
2022-09-17T00:06:35.979Z,57.01
2022-09-17T00:09:06.818Z,56.38
2022-09-17T00:11:38.622Z,56.42
2022-09-17T00:14:10.196Z,55.90
2022-09-17T00:16:45.233Z,56.32
2022-09-17T00:19:23.055Z,55.91
2022-09-17T00:21:51.553Z,55.84
2022-09-17T00:24:20.814Z,55.81
2022-09-17T00:26:50.188Z,56.03
2022-09-17T00:29:18.123Z,55.96
2022-09-17T00:31:45.960Z,56.30
2022-09-17T00:34:13.898Z,56.60
2022-09-17T00:36:42.135Z,57.28
2022-09-17T00:39:12.495Z,57.36
2022-09-17T00:41:40.294Z,57.64
2022-09-17T00:44:43.389Z,57.66
2022-09-17T00:47:16.201Z,57.59
2022-09-17T00:49:44.739Z,57.63
2022-09-17T00:52:21.924Z,57.24
2022-09-17T00:55:15.863Z,56.95
2022-09-17T00:57:46.023Z,57.52
2022-09-17T01:00:16.180Z,57.73
2022-09-17T01:02:45.008Z,57.99
2022-09-17T01:05:14.038Z,57.49
2022-09-17T01:07:57.725Z,57.81
2022-09-17T01:10:43.986Z,57.77
2022-09-17T01:14:05.707Z,57.52
2022-09-17T01:16:53.785Z,57.68
2022-09-17T01:19:38.150Z,58.76
2022-09-17T01:23:03.056Z,58.69
2022-09-17T01:26:05.920Z,57.80
2022-09-17T01:28:53.729Z,58.15
2022-09-17T01:31:49.149Z,58.09
2022-09-17T01:34:59.509Z,58.26
2022-09-17T01:37:57.767Z,58.06
2022-09-17T01:40:41.804Z,58.45
2022-09-17T01:43:49.996Z,59.00
2022-09-17T01:46:33.971Z,58.14
2022-09-17T01:49:06.850Z,58.71
2022-09-17T01:51:43.302Z,57.79
2022-09-17T01:54:43.031Z,58.11
2022-09-17T01:57:36.447Z,57.96
2022-09-17T02:00:12.477Z,57.57
2022-09-17T02:03:05.698Z,57.50
2022-09-17T02:05:50.643Z,57.14
2022-09-17T02:08:26.324Z,57.79
2022-09-17T02:11:06.661Z,57.17
2022-09-17T02:13:46.313Z,57.14
2022-09-17T02:16:24.824Z,57.26
2022-09-17T02:19:10.869Z,57.09
2022-09-17T02:22:27.551Z,56.88
2022-09-17T02:25:08.499Z,56.66
2022-09-17T02:28:06.147Z,56.83
2022-09-17T02:30:34.442Z,57.06
2022-09-17T02:33:05.121Z,56.83
2022-09-17T02:35:33.412Z,57.35
2022-09-17T02:38:01.384Z,56.89
2022-09-17T02:40:37.831Z,57.47
2022-09-17T02:43:50.895Z,57.04
2022-09-17T02:46:55.297Z,57.40
2022-09-17T02:49:58.979Z,57.69
2022-09-17T02:52:49.365Z,57.56
2022-09-17T02:55:23.123Z,56.97
2022-09-17T02:58:04.438Z,56.96
2022-09-17T03:00:32.745Z,56.78
2022-09-17T03:03:26.656Z,57.30
2022-09-17T03:05:55.157Z,56.70
2022-09-17T03:08:30.562Z,56.72
2022-09-17T03:10:58.349Z,56.97
2022-09-17T03:13:26.231Z,56.76
2022-09-17T03:15:54.057Z,56.46
2022-09-17T03:18:21.801Z,57.00
2022-09-17T03:20:50.032Z,57.39
2022-09-17T03:23:17.744Z,57.83
2022-09-17T03:25:47.325Z,58.07
2022-09-17T03:28:15.438Z,57.41
2022-09-17T03:30:45.568Z,57.46
2022-09-17T03:33:14.432Z,58.15
2022-09-17T03:35:46.496Z,57.31
2022-09-17T03:38:14.640Z,57.93
2022-09-17T03:40:42.725Z,58.56
2022-09-17T03:43:11.166Z,58.27
2022-09-17T03:45:38.909Z,57.98
2022-09-17T03:48:06.617Z,58.41
2022-09-17T03:50:34.463Z,58.17
2022-09-17T03:53:02.216Z,58.10
2022-09-17T03:55:29.998Z,58.06
2022-09-17T03:57:57.715Z,57.77
2022-09-17T04:00:25.741Z,58.91
2022-09-17T04:02:53.548Z,58.74
2022-09-17T04:05:21.368Z,59.37
2022-09-17T04:07:49.224Z,59.83
2022-09-17T04:10:17.452Z,59.61
2022-09-17T04:12:45.361Z,60.01
2022-09-17T04:15:13.112Z,59.95
2022-09-17T04:17:41.074Z,58.95
2022-09-17T04:20:09.430Z,59.47
2022-09-17T04:22:37.146Z,58.95
2022-09-17T04:25:05.488Z,59.24
2022-09-17T04:27:33.225Z,58.50
2022-09-17T04:30:01.804Z,57.91
2022-09-17T04:32:29.549Z,58.55
2022-09-17T04:34:57.338Z,58.39
2022-09-17T04:37:25.909Z,58.51
2022-09-17T04:39:53.858Z,58.35
2022-09-17T04:42:21.600Z,58.31
2022-09-17T04:44:49.337Z,58.66
2022-09-17T04:47:17.066Z,58.61
2022-09-17T04:49:44.997Z,58.91
2022-09-17T04:52:12.708Z,59.09
2022-09-17T04:54:40.501Z,58.84
2022-09-17T04:57:08.420Z,58.33
2022-09-17T04:59:36.227Z,59.40
2022-09-17T05:02:04.020Z,58.76
2022-09-17T05:04:31.852Z,59.28
2022-09-17T05:07:00.319Z,59.75
2022-09-17T05:09:28.117Z,59.73
2022-09-17T05:11:55.910Z,59.39
2022-09-17T05:14:23.689Z,58.83
2022-09-17T05:16:51.448Z,59.00
2022-09-17T05:19:19.156Z,58.15
2022-09-17T05:21:47.198Z,58.34
2022-09-17T05:24:14.921Z,59.00
2022-09-17T05:26:42.697Z,58.57
2022-09-17T05:29:10.489Z,58.48
2022-09-17T05:31:38.356Z,58.85
2022-09-17T05:34:06.214Z,58.70
2022-09-17T05:36:33.977Z,59.44
2022-09-17T05:39:02.281Z,59.70
2022-09-17T05:41:30.186Z,58.88
2022-09-17T05:43:57.935Z,58.44
2022-09-17T05:46:26.390Z,58.27
2022-09-17T05:48:57.462Z,58.28
2022-09-17T05:51:25.464Z,58.34
2022-09-17T05:53:56.221Z,58.60
2022-09-17T05:56:24.175Z,58.52
2022-09-17T05:58:57.031Z,59.01
2022-09-17T06:01:25.087Z,58.95
2022-09-17T06:03:53.825Z,59.46
2022-09-17T06:06:21.585Z,59.67
2022-09-17T06:08:49.391Z,59.06
2022-09-17T06:11:17.086Z,58.92
2022-09-17T06:13:44.820Z,57.87
2022-09-17T06:16:12.613Z,59.07
2022-09-17T06:18:40.357Z,58.45
2022-09-17T06:21:08.047Z,58.58
2022-09-17T06:23:35.874Z,59.02
2022-09-17T06:26:05.843Z,58.86
2022-09-17T06:28:35.857Z,59.37
2022-09-17T06:31:09.411Z,59.05
2022-09-17T06:33:37.623Z,58.32
2022-09-17T06:36:13.743Z,58.00
2022-09-17T06:38:42.864Z,57.78
2022-09-17T06:41:10.632Z,58.07
2022-09-17T06:43:39.335Z,58.45
2022-09-17T06:46:09.205Z,58.56
2022-09-17T06:48:38.374Z,58.45
2022-09-17T06:51:11.127Z,60.02
2022-09-17T06:53:39.727Z,60.14
2022-09-17T06:56:09.189Z,59.84
2022-09-17T06:58:37.951Z,60.51
2022-09-17T07:01:06.155Z,60.22
2022-09-17T07:03:35.692Z,60.16
2022-09-17T07:06:04.015Z,61.09
2022-09-17T07:08:34.702Z,61.76
2022-09-17T07:11:02.907Z,61.26
2022-09-17T07:13:30.707Z,60.31
2022-09-17T07:16:01.286Z,60.49
2022-09-17T07:18:29.133Z,61.15
2022-09-17T07:21:02.818Z,61.43
2022-09-17T07:23:34.734Z,61.54
2022-09-17T07:26:06.883Z,62.06
2022-09-17T07:28:35.190Z,61.45
2022-09-17T07:31:05.546Z,61.82
2022-09-17T07:33:35.903Z,61.81
2022-09-17T07:36:07.631Z,61.10
2022-09-17T07:38:35.605Z,60.78
2022-09-17T07:41:15.652Z,61.07
2022-09-17T07:43:44.481Z,61.70
2022-09-17T07:46:18.094Z,62.41
2022-09-17T07:48:48.037Z,62.69
2022-09-17T07:51:22.300Z,62.67
2022-09-17T07:53:57.969Z,62.43
2022-09-17T07:56:27.435Z,61.90
2022-09-17T07:58:56.262Z,62.18
2022-09-17T08:01:24.424Z,61.64
2022-09-17T08:03:54.363Z,61.44
2022-09-17T08:06:28.351Z,61.40
2022-09-17T08:09:00.180Z,61.40
2022-09-17T08:11:52.212Z,61.74
2022-09-17T08:14:17.958Z,61.40
2022-09-17T08:16:47.433Z,60.96
2022-09-17T08:19:15.269Z,60.80
2022-09-17T08:21:42.987Z,61.07
2022-09-17T08:24:10.749Z,60.28
2022-09-17T08:26:39.798Z,61.12
2022-09-17T08:29:07.739Z,60.47
2022-09-17T08:31:35.545Z,59.95
2022-09-17T08:34:09.670Z,59.73
2022-09-17T08:36:37.895Z,59.47
2022-09-17T08:39:05.901Z,59.92
2022-09-17T08:41:52.457Z,60.23
2022-09-17T08:44:34.689Z,59.55
2022-09-17T08:47:26.536Z,59.11
2022-09-17T08:50:00.594Z,58.51
2022-09-17T08:52:52.296Z,58.68
2022-09-17T08:55:35.169Z,57.44
2022-09-17T08:58:35.293Z,57.79
2022-09-17T09:01:21.011Z,58.19
2022-09-17T09:04:26.378Z,57.28
2022-09-17T09:07:24.129Z,56.95
2022-09-17T09:10:17.848Z,57.17
2022-09-17T09:12:47.357Z,56.58
2022-09-17T09:15:27.307Z,56.30
2022-09-17T09:17:57.925Z,56.34
2022-09-17T09:21:04.117Z,55.68
2022-09-17T09:23:56.845Z,55.77
2022-09-17T09:27:02.400Z,57.01
2022-09-17T09:29:58.556Z,56.67
2022-09-17T09:33:07.048Z,57.25
2022-09-17T09:35:39.565Z,57.12
2022-09-17T09:38:25.342Z,57.16
2022-09-17T09:41:37.579Z,56.70
2022-09-17T09:44:11.446Z,56.10
2022-09-17T09:46:42.217Z,55.76
2022-09-17T09:49:25.031Z,55.71
2022-09-17T09:52:07.749Z,55.52
2022-09-17T09:54:54.013Z,55.23
2022-09-17T09:57:52.321Z,54.85
2022-09-17T10:00:39.327Z,54.38
2022-09-17T10:03:26.782Z,54.04
2022-09-17T10:06:04.929Z,54.36
2022-09-17T10:08:39.087Z,53.86
2022-09-17T10:11:22.041Z,52.97
2022-09-17T10:13:50.176Z,52.86
2022-09-17T10:16:24.497Z,52.10
2022-09-17T10:19:04.354Z,51.82
2022-09-17T10:21:39.522Z,53.09
2022-09-17T10:24:31.139Z,52.18
2022-09-17T10:27:18.127Z,51.70
2022-09-17T10:29:49.309Z,52.52
2022-09-17T10:32:20.739Z,51.37
2022-09-17T10:35:16.958Z,51.05
2022-09-17T10:37:51.282Z,50.53
2022-09-17T10:40:19.025Z,50.72
2022-09-17T10:43:21.609Z,51.41
2022-09-17T10:45:59.686Z,50.91
2022-09-17T10:48:45.039Z,50.88
2022-09-17T10:51:23.355Z,50.68
2022-09-17T10:54:44.849Z,50.19
2022-09-17T10:57:29.206Z,51.02
2022-09-17T11:00:21.582Z,51.14
2022-09-17T11:03:10.848Z,50.67
2022-09-17T11:06:16.970Z,50.45
2022-09-17T11:09:05.926Z,49.75
2022-09-17T11:12:07.826Z,48.83
2022-09-17T11:14:56.870Z,48.30
2022-09-17T11:18:03.870Z,47.54
2022-09-17T11:21:03.498Z,48.10
2022-09-17T11:24:02.401Z,47.72
2022-09-17T11:27:00.760Z,47.78
2022-09-17T11:30:04.540Z,47.18
2022-09-17T11:33:14.234Z,47.87
2022-09-17T11:35:47.612Z,48.55
2022-09-17T11:38:27.043Z,48.25
2022-09-17T11:41:46.805Z,50.82
2022-09-17T11:44:21.093Z,51.42
2022-09-17T11:47:02.868Z,50.27
2022-09-17T11:49:46.626Z,51.05
2022-09-17T11:52:41.545Z,51.92
2022-09-17T11:55:22.799Z,52.46
2022-09-17T11:57:57.941Z,52.87
2022-09-17T12:00:28.640Z,51.72
2022-09-17T12:03:36.035Z,52.18
2022-09-17T12:06:16.365Z,53.92
2022-09-17T12:09:19.168Z,52.90
2022-09-17T12:11:59.362Z,52.40
2022-09-17T12:15:03.689Z,51.75
2022-09-17T12:17:42.489Z,52.50
2022-09-17T12:20:37.470Z,51.76
2022-09-17T12:23:15.083Z,52.40
2022-09-17T12:26:12.458Z,53.23
2022-09-17T12:29:05.915Z,54.66
2022-09-17T12:31:52.508Z,55.43
2022-09-17T12:34:29.248Z,55.83
2022-09-17T12:37:17.330Z,56.08
2022-09-17T12:39:54.015Z,57.36
2022-09-17T12:42:33.013Z,57.39
2022-09-17T12:45:42.419Z,57.07
2022-09-17T12:48:29.185Z,57.05
2022-09-17T12:51:53.138Z,57.66
2022-09-17T12:55:24.803Z,57.39
2022-09-17T12:58:07.580Z,57.09
2022-09-17T13:00:48.141Z,56.88
2022-09-17T13:03:29.375Z,57.99
2022-09-17T13:07:04.247Z,57.34
2022-09-17T13:10:15.326Z,56.32
2022-09-17T13:12:49.774Z,56.16
2022-09-17T13:15:36.154Z,56.27
2022-09-17T13:21:55.781Z,55.96
2022-09-17T13:24:27.271Z,55.49
2022-09-17T13:26:56.155Z,55.17
2022-09-17T13:29:46.094Z,55.45
2022-09-17T13:32:32.685Z,54.39
2022-09-17T13:35:15.246Z,55.73
2022-09-17T13:38:04.506Z,55.92
2022-09-17T13:40:36.969Z,55.09
2022-09-17T13:43:06.247Z,55.23
2022-09-17T13:45:59.494Z,55.57
2022-09-17T13:48:34.763Z,55.41
2022-09-17T13:51:30.381Z,54.73
2022-09-17T13:54:07.998Z,55.24
2022-09-17T13:56:46.239Z,53.79
2022-09-17T13:59:18.184Z,53.47
2022-09-17T14:02:18.650Z,52.87
2022-09-17T14:04:52.506Z,52.56
2022-09-17T14:07:28.978Z,52.01
2022-09-17T14:10:02.887Z,50.61
2022-09-17T14:12:44.534Z,50.89
2022-09-17T14:15:31.977Z,51.30
2022-09-17T14:18:00.085Z,52.33
2022-09-17T14:20:28.728Z,52.14
2022-09-17T14:23:03.540Z,51.41
2022-09-17T14:25:58.492Z,51.41
2022-09-17T14:28:30.771Z,50.59
2022-09-17T14:31:02.892Z,50.85
2022-09-17T14:33:32.462Z,50.15
2022-09-17T14:36:10.690Z,49.59
2022-09-17T14:38:45.063Z,50.14
2022-09-17T14:41:12.856Z,50.51
2022-09-17T14:43:49.542Z,49.74
2022-09-17T14:46:37.514Z,49.90
2022-09-17T14:49:24.524Z,50.27
2022-09-17T14:51:55.719Z,49.46
2022-09-17T14:54:36.499Z,49.05
2022-09-17T14:57:29.637Z,49.16
2022-09-17T14:59:58.212Z,48.51
2022-09-17T15:02:45.362Z,48.46
2022-09-17T15:05:27.317Z,48.48
2022-09-17T15:08:10.414Z,48.59
2022-09-17T15:11:03.157Z,48.65
2022-09-17T15:13:57.296Z,48.70
2022-09-17T15:16:27.971Z,49.01
2022-09-17T15:18:58.720Z,49.98
2022-09-17T15:21:49.332Z,49.46
2022-09-17T15:24:38.927Z,49.37
2022-09-17T15:27:34.227Z,49.28
2022-09-17T15:30:20.405Z,50.36
2022-09-17T15:32:57.608Z,49.83
2022-09-17T15:35:30.565Z,49.78
2022-09-17T15:38:22.362Z,49.49
2022-09-17T15:40:51.823Z,48.91
2022-09-17T15:43:25.494Z,49.19
2022-09-17T15:45:54.002Z,49.55
2022-09-17T15:48:27.458Z,50.03
2022-09-17T15:50:57.965Z,49.75
2022-09-17T15:53:28.427Z,49.60
2022-09-17T15:56:17.810Z,50.32
2022-09-17T15:58:45.581Z,49.85
2022-09-17T16:01:15.994Z,49.71
2022-09-17T16:03:43.675Z,48.89
2022-09-17T16:06:20.929Z,49.57
2022-09-17T16:08:55.486Z,49.47
2022-09-17T16:11:26.679Z,49.09
2022-09-17T16:14:00.897Z,48.53
2022-09-17T16:16:37.566Z,48.85
2022-09-17T16:19:06.860Z,49.09
2022-09-17T16:21:34.596Z,49.02
2022-09-17T16:24:02.462Z,48.84
2022-09-17T16:26:33.711Z,49.16
2022-09-17T16:29:17.243Z,49.86
2022-09-17T16:31:45.241Z,49.86
2022-09-17T16:34:13.089Z,50.16
2022-09-17T16:36:41.077Z,49.94
2022-09-17T16:39:08.818Z,50.54
2022-09-17T16:41:36.541Z,50.86
2022-09-17T16:44:04.547Z,50.55
2022-09-17T16:46:32.358Z,50.26
2022-09-17T16:49:00.805Z,50.57
2022-09-17T16:51:28.656Z,50.45
2022-09-17T16:53:57.811Z,50.10
2022-09-17T16:56:26.164Z,53.42
2022-09-17T16:58:57.046Z,54.78
2022-09-17T17:01:24.981Z,57.02
2022-09-17T17:03:54.213Z,58.15
2022-09-17T17:06:22.751Z,56.96
2022-09-17T17:08:51.794Z,57.58
2022-09-17T17:11:19.509Z,57.78
2022-09-17T17:13:47.579Z,59.02
2022-09-17T17:16:16.246Z,59.22
2022-09-17T17:18:44.997Z,59.22
2022-09-17T17:21:14.475Z,60.27
2022-09-17T17:23:47.218Z,60.01
2022-09-17T17:26:16.777Z,59.61
2022-09-17T17:28:44.673Z,59.44
2022-09-17T17:31:12.443Z,60.04
2022-09-17T17:33:40.376Z,59.91
2022-09-17T17:36:08.731Z,59.97
2022-09-17T17:38:37.267Z,60.67
2022-09-17T17:41:14.118Z,59.59
2022-09-17T17:43:42.366Z,60.02
2022-09-17T17:46:11.845Z,59.24
2022-09-17T17:48:39.860Z,59.86
2022-09-17T17:51:09.700Z,59.60
2022-09-17T17:53:41.735Z,59.01
2022-09-17T17:56:11.172Z,58.47
2022-09-17T17:58:40.028Z,58.37
2022-09-17T18:01:20.910Z,58.68
2022-09-17T18:03:49.027Z,58.96
2022-09-17T18:06:16.936Z,58.63
2022-09-17T18:08:44.823Z,58.53
2022-09-17T18:11:12.745Z,58.42
2022-09-17T18:13:40.679Z,58.48
2022-09-17T18:16:12.374Z,58.87
2022-09-17T18:18:44.948Z,58.70
2022-09-17T18:21:22.190Z,58.67
2022-09-17T18:23:51.059Z,58.89
2022-09-17T18:26:25.563Z,58.70
2022-09-17T18:28:53.773Z,58.38
2022-09-17T18:31:22.903Z,59.02
2022-09-17T18:34:13.475Z,58.77
2022-09-17T18:36:44.700Z,59.56
2022-09-17T18:39:53.291Z,60.97
2022-09-17T18:42:04.501Z,60.13
2022-09-17T18:44:32.333Z,60.00
2022-09-17T18:47:00.295Z,61.08
2022-09-17T18:49:28.098Z,62.33
2022-09-17T18:51:55.881Z,62.63
2022-09-17T18:54:23.645Z,62.62
2022-09-17T18:56:51.376Z,62.10
2022-09-17T18:59:19.163Z,61.41
2022-09-17T19:01:46.955Z,60.54
2022-09-17T19:04:14.766Z,59.34
2022-09-17T19:06:42.492Z,59.28
2022-09-17T19:09:11.631Z,58.85
2022-09-17T19:11:39.365Z,58.60
2022-09-17T19:14:10.591Z,59.11
2022-09-17T19:16:38.348Z,58.30
2022-09-17T19:19:06.051Z,57.67
2022-09-17T19:21:33.773Z,57.86
2022-09-17T19:24:03.324Z,58.27
2022-09-17T19:26:31.192Z,57.83
2022-09-17T19:29:00.523Z,58.65
2022-09-17T19:31:28.955Z,59.04
2022-09-17T19:33:58.822Z,58.27
2022-09-17T19:36:26.842Z,58.15
2022-09-17T19:38:55.127Z,57.99
2022-09-17T19:41:23.405Z,57.99
2022-09-17T19:43:53.507Z,58.02
2022-09-17T19:46:26.843Z,58.61
2022-09-17T19:48:57.202Z,57.74
2022-09-17T19:51:29.699Z,57.77
2022-09-17T19:53:57.977Z,57.47
2022-09-17T19:56:28.257Z,57.58
2022-09-17T19:58:56.834Z,57.39
2022-09-17T20:01:24.779Z,56.54
2022-09-17T20:03:55.529Z,56.63
2022-09-17T20:06:24.074Z,57.16
2022-09-17T20:08:54.705Z,57.48
2022-09-17T20:11:25.293Z,57.15
2022-09-17T20:14:07.433Z,57.08
2022-09-17T20:16:38.464Z,57.70
2022-09-17T20:19:08.051Z,57.75
2022-09-17T20:21:35.879Z,58.63
2022-09-17T20:24:06.942Z,58.01
2022-09-17T20:26:35.394Z,58.54
2022-09-17T20:29:03.922Z,58.41
2022-09-17T20:31:32.498Z,58.46
2022-09-17T20:34:02.899Z,58.65
2022-09-17T20:36:35.351Z,59.11
2022-09-17T20:39:22.867Z,59.15
2022-09-17T20:41:51.085Z,59.86
2022-09-17T20:44:18.971Z,59.24
2022-09-17T20:46:47.137Z,60.47
2022-09-17T20:49:15.134Z,60.50
2022-09-17T20:51:42.975Z,61.29
2022-09-17T20:54:11.084Z,61.87
2022-09-17T20:56:38.920Z,62.73
2022-09-17T20:59:25.000Z,61.55
2022-09-17T21:01:53.649Z,62.72
2022-09-17T21:04:22.382Z,61.55
2022-09-17T21:06:54.018Z,61.40
2022-09-17T21:09:21.776Z,60.82
2022-09-17T21:11:49.910Z,60.67
2022-09-17T21:14:18.511Z,60.44
2022-09-17T21:16:47.007Z,61.33
2022-09-17T21:19:17.254Z,61.32
2022-09-17T21:21:45.041Z,62.94
2022-09-17T21:24:12.893Z,62.35
2022-09-17T21:26:40.691Z,61.21
2022-09-17T21:29:08.704Z,60.77
2022-09-17T21:31:37.974Z,61.03
2022-09-17T21:34:10.011Z,61.45
2022-09-17T21:36:40.156Z,60.64
2022-09-17T21:39:14.456Z,61.52
2022-09-17T21:41:43.969Z,62.01
2022-09-17T21:44:12.728Z,61.55
2022-09-17T21:46:42.663Z,61.89
2022-09-17T21:49:11.264Z,62.24
2022-09-17T21:51:41.962Z,61.07
2022-09-17T21:54:13.957Z,61.36
2022-09-17T21:56:42.023Z,60.88
2022-09-17T21:59:13.217Z,60.86
2022-09-17T22:01:46.656Z,61.10
2022-09-17T22:04:20.445Z,61.34
2022-09-17T22:06:49.922Z,60.36
2022-09-17T22:09:26.234Z,61.10
2022-09-17T22:11:54.065Z,60.60
2022-09-17T22:14:25.334Z,60.00
2022-09-17T22:16:57.234Z,60.52
2022-09-17T22:19:25.928Z,60.18
2022-09-17T22:21:55.582Z,60.63
2022-09-17T22:24:25.153Z,59.92
2022-09-17T22:26:57.894Z,59.95
2022-09-17T22:29:28.629Z,59.92
2022-09-17T22:31:57.289Z,59.11
2022-09-17T22:34:26.475Z,59.48
2022-09-17T22:36:54.272Z,59.22
2022-09-17T22:39:22.569Z,59.05
2022-09-17T22:41:51.106Z,58.54
2022-09-17T22:44:20.580Z,58.80
2022-09-17T22:46:51.411Z,58.49
2022-09-17T22:49:19.586Z,58.75
2022-09-17T22:51:47.676Z,58.53
2022-09-17T22:54:18.793Z,58.40
2022-09-17T22:56:48.254Z,58.87
2022-09-17T22:59:18.229Z,58.67
2022-09-17T23:01:46.421Z,59.08
2022-09-17T23:04:14.293Z,59.16
2022-09-17T23:06:42.262Z,59.76
2022-09-17T23:09:12.203Z,59.53
2022-09-17T23:11:40.367Z,59.50
2022-09-17T23:14:12.147Z,58.87
2022-09-17T23:16:47.446Z,58.94
2022-09-17T23:19:18.341Z,59.32
2022-09-17T23:21:46.581Z,59.30
2022-09-17T23:24:21.000Z,59.13
2022-09-17T23:26:50.004Z,59.96
2022-09-17T23:29:18.556Z,61.12
2022-09-17T23:31:46.305Z,60.59
2022-09-17T23:34:14.080Z,60.42
2022-09-17T23:36:41.825Z,59.92
2022-09-17T23:39:11.958Z,59.98
2022-09-17T23:41:43.439Z,60.43
2022-09-17T23:44:15.712Z,60.72
2022-09-17T23:46:45.174Z,60.84
2022-09-17T23:49:14.384Z,60.59
2022-09-17T23:51:42.596Z,61.55
2022-09-17T23:54:10.854Z,60.47
2022-09-17T23:56:38.630Z,60.75
2022-09-17T23:59:08.518Z,60.06
